sensor_id;sensor_type;location;lat;lon;timestamp;pressure;altitude;pressure_sealevel;temperature;humidity
51099;BME280;37146;48.210;16.234;2023-04-06T00:01:37;99170.28;;;-1.74;75.04
51099;BME280;37146;48.210;16.234;2023-04-06T00:04:03;99174.66;;;-1.63;75.56
51099;BME280;37146;48.210;16.234;2023-04-06T00:06:28;99164.19;;;-1.88;75.26
51099;BME280;37146;48.210;16.234;2023-04-06T00:08:55;99170.31;;;-1.58;75.75
51099;BME280;37146;48.210;16.234;2023-04-06T00:11:20;99163.31;;;-1.68;74.81
51099;BME280;37146;48.210;16.234;2023-04-06T00:13:46;99170.31;;;-1.55;75.79
51099;BME280;37146;48.210;16.234;2023-04-06T00:16:11;99165.94;;;-1.59;75.28
51099;BME280;37146;48.210;16.234;2023-04-06T00:18:37;99172.06;;;-1.60;74.21
51099;BME280;37146;48.210;16.234;2023-04-06T00:21:02;99167.69;;;-1.32;73.77
51099;BME280;37146;48.210;16.234;2023-04-06T00:23:27;99171.19;;;-1.39;73.35
51099;BME280;37146;48.210;16.234;2023-04-06T00:25:53;99165.06;;;-1.50;73.59
51099;BME280;37146;48.210;16.234;2023-04-06T00:28:18;99164.19;;;-1.60;73.77
51099;BME280;37146;48.210;16.234;2023-04-06T00:30:50;99161.56;;;-1.65;75.29
51099;BME280;37146;48.210;16.234;2023-04-06T00:33:17;99155.44;;;-1.75;75.49
51099;BME280;37146;48.210;16.234;2023-04-06T00:35:42;99152.81;;;-1.62;74.72
51099;BME280;37146;48.210;16.234;2023-04-06T00:38:07;99157.19;;;-1.66;75.06
51099;BME280;37146;48.210;16.234;2023-04-06T00:40:33;99152.81;;;-1.72;74.98
51099;BME280;37146;48.210;16.234;2023-04-06T00:42:59;99145.84;;;-1.74;75.36
51099;BME280;37146;48.210;16.234;2023-04-06T00:45:25;99144.97;;;-1.82;75.84
51099;BME280;37146;48.210;16.234;2023-04-06T00:47:50;99151.06;;;-1.82;75.62
51099;BME280;37146;48.210;16.234;2023-04-06T00:50:16;99144.97;;;-1.85;76.17
51099;BME280;37146;48.210;16.234;2023-04-06T00:52:41;99151.94;;;-1.95;76.62
51099;BME280;37146;48.210;16.234;2023-04-06T00:55:07;99161.53;;;-1.85;75.86
51099;BME280;37146;48.210;16.234;2023-04-06T00:57:32;99152.81;;;-1.89;76.15
51099;BME280;37146;48.210;16.234;2023-04-06T00:59:57;99157.19;;;-1.94;76.67
51099;BME280;37146;48.210;16.234;2023-04-06T01:02:23;99147.56;;;-1.96;75.88
51099;BME280;37146;48.210;16.234;2023-04-06T01:04:48;99156.28;;;-1.97;76.86
51099;BME280;37146;48.210;16.234;2023-04-06T01:07:14;99153.69;;;-1.96;77.35
51099;BME280;37146;48.210;16.234;2023-04-06T01:09:39;99158.03;;;-2.16;76.93
51099;BME280;37146;48.210;16.234;2023-04-06T01:12:06;99147.53;;;-2.15;77.72
51099;BME280;37146;48.210;16.234;2023-04-06T01:14:32;99146.69;;;-2.06;77.04
51099;BME280;37146;48.210;16.234;2023-04-06T01:16:58;99154.53;;;-1.95;77.06
51099;BME280;37146;48.210;16.234;2023-04-06T01:19:24;99140.56;;;-1.94;76.48
51099;BME280;37146;48.210;16.234;2023-04-06T01:21:49;99153.69;;;-2.00;76.74
51099;BME280;37146;48.210;16.234;2023-04-06T01:24:15;99141.41;;;-2.17;77.74
51099;BME280;37146;48.210;16.234;2023-04-06T01:26:40;99151.06;;;-2.00;77.68
51099;BME280;37146;48.210;16.234;2023-04-06T01:29:06;99139.69;;;-2.03;77.16
51099;BME280;37146;48.210;16.234;2023-04-06T01:31:31;99132.66;;;-2.14;78.18
51099;BME280;37146;48.210;16.234;2023-04-06T01:33:56;99137.03;;;-2.34;77.00
51099;BME280;37146;48.210;16.234;2023-04-06T01:36:22;99142.28;;;-2.18;78.00
51099;BME280;37146;48.210;16.234;2023-04-06T01:38:47;99141.38;;;-2.36;77.67
51099;BME280;37146;48.210;16.234;2023-04-06T01:41:12;99136.16;;;-2.26;78.81
51099;BME280;37146;48.210;16.234;2023-04-06T01:43:38;99137.91;;;-2.35;78.27
51099;BME280;37146;48.210;16.234;2023-04-06T01:46:03;99132.66;;;-2.31;78.70
51099;BME280;37146;48.210;16.234;2023-04-06T01:48:28;99137.91;;;-2.31;78.53
51099;BME280;37146;48.210;16.234;2023-04-06T01:50:54;99137.91;;;-2.16;78.14
51099;BME280;37146;48.210;16.234;2023-04-06T01:53:19;99132.63;;;-2.41;78.96
51099;BME280;37146;48.210;16.234;2023-04-06T01:55:45;99128.25;;;-2.42;78.80
51099;BME280;37146;48.210;16.234;2023-04-06T01:58:10;99132.63;;;-2.42;79.95
51099;BME280;37146;48.210;16.234;2023-04-06T02:00:35;99135.28;;;-2.30;78.97
51099;BME280;37146;48.210;16.234;2023-04-06T02:03:01;99129.97;;;-2.56;79.01
51099;BME280;37146;48.210;16.234;2023-04-06T02:05:26;99126.47;;;-2.52;79.83
51099;BME280;37146;48.210;16.234;2023-04-06T02:07:51;99125.59;;;-2.62;79.77
51099;BME280;37146;48.210;16.234;2023-04-06T02:10:17;99124.69;;;-2.69;80.40
51099;BME280;37146;48.210;16.234;2023-04-06T02:12:42;99133.44;;;-2.60;80.70
51099;BME280;37146;48.210;16.234;2023-04-06T02:15:07;99133.41;;;-2.76;80.58
51099;BME280;37146;48.210;16.234;2023-04-06T02:17:33;99129.94;;;-2.66;79.81
51099;BME280;37146;48.210;16.234;2023-04-06T02:19:58;99129.09;;;-2.58;80.48
51099;BME280;37146;48.210;16.234;2023-04-06T02:22:23;99127.34;;;-2.59;79.95
51099;BME280;37146;48.210;16.234;2023-04-06T02:24:49;99124.72;;;-2.61;79.71
51099;BME280;37146;48.210;16.234;2023-04-06T02:27:14;99122.97;;;-2.67;80.46
51099;BME280;37146;48.210;16.234;2023-04-06T02:29:40;99118.59;;;-2.63;81.05
51099;BME280;37146;48.210;16.234;2023-04-06T02:32:05;99126.41;;;-2.82;82.04
51099;BME280;37146;48.210;16.234;2023-04-06T02:34:30;99136.88;;;-2.77;80.33
51099;BME280;37146;48.210;16.234;2023-04-06T02:36:56;99127.19;;;-2.93;81.21
51099;BME280;37146;48.210;16.234;2023-04-06T02:39:21;99124.59;;;-2.93;82.09
51099;BME280;37146;48.210;16.234;2023-04-06T02:41:46;99118.56;;;-2.77;81.51
51099;BME280;37146;48.210;16.234;2023-04-06T02:44:11;99122.00;;;-2.86;81.59
51099;BME280;37146;48.210;16.234;2023-04-06T02:46:37;99122.00;;;-2.90;81.78
51099;BME280;37146;48.210;16.234;2023-04-06T02:49:02;99118.53;;;-2.80;81.22
51099;BME280;37146;48.210;16.234;2023-04-06T02:51:27;99116.81;;;-2.73;81.03
51099;BME280;37146;48.210;16.234;2023-04-06T02:53:53;99121.16;;;-2.78;80.90
51099;BME280;37146;48.210;16.234;2023-04-06T02:56:18;99119.44;;;-2.78;81.18
51099;BME280;37146;48.210;16.234;2023-04-06T02:58:44;99123.72;;;-2.86;81.05
51099;BME280;37146;48.210;16.234;2023-04-06T03:01:09;99120.19;;;-3.05;82.52
51099;BME280;37146;48.210;16.234;2023-04-06T03:03:34;99119.31;;;-3.03;83.02
51099;BME280;37146;48.210;16.234;2023-04-06T03:06:00;99119.34;;;-2.93;82.28
51099;BME280;37146;48.210;16.234;2023-04-06T03:08:25;99116.69;;;-3.09;82.60
51099;BME280;37146;48.210;16.234;2023-04-06T03:10:50;99126.22;;;-3.14;83.25
51099;BME280;37146;48.210;16.234;2023-04-06T03:13:16;99123.63;;;-3.11;83.24
51099;BME280;37146;48.210;16.234;2023-04-06T03:15:41;99124.53;;;-3.09;82.50
51099;BME280;37146;48.210;16.234;2023-04-06T03:18:06;99116.69;;;-3.09;82.86
51099;BME280;37146;48.210;16.234;2023-04-06T03:20:31;99129.75;;;-3.06;83.06
51099;BME280;37146;48.210;16.234;2023-04-06T03:22:57;99129.78;;;-3.03;83.08
51099;BME280;37146;48.210;16.234;2023-04-06T03:25:22;99134.06;;;-3.14;82.78
51099;BME280;37146;48.210;16.234;2023-04-06T03:27:47;99132.31;;;-3.14;82.99
51099;BME280;37146;48.210;16.234;2023-04-06T03:30:13;99129.59;;;-3.34;82.96
51099;BME280;37146;48.210;16.234;2023-04-06T03:32:38;99135.81;;;-3.18;83.23
51099;BME280;37146;48.210;16.234;2023-04-06T03:35:04;99135.72;;;-3.29;83.00
51099;BME280;37146;48.210;16.234;2023-04-06T03:37:29;99132.28;;;-3.26;83.25
51099;BME280;37146;48.210;16.234;2023-04-06T03:39:54;99128.75;;;-3.25;83.16
51099;BME280;37146;48.210;16.234;2023-04-06T03:42:20;99134.03;;;-3.23;83.39
51099;BME280;37146;48.210;16.234;2023-04-06T03:44:45;99135.78;;;-3.19;84.04
51099;BME280;37146;48.210;16.234;2023-04-06T03:47:10;99131.44;;;-3.19;83.51
51099;BME280;37146;48.210;16.234;2023-04-06T03:49:35;99147.97;;;-3.26;83.65
51099;BME280;37146;48.210;16.234;2023-04-06T03:52:01;99147.00;;;-3.42;83.27
51099;BME280;37146;48.210;16.234;2023-04-06T03:54:26;99149.66;;;-3.37;83.89
51099;BME280;37146;48.210;16.234;2023-04-06T03:56:51;99144.41;;;-3.37;83.51
51099;BME280;37146;48.210;16.234;2023-04-06T03:59:16;99145.31;;;-3.34;83.50
51099;BME280;37146;48.210;16.234;2023-04-06T04:01:42;99141.94;;;-3.11;83.41
51099;BME280;37146;48.210;16.234;2023-04-06T04:04:07;99144.63;;;-2.97;82.33
51099;BME280;37146;48.210;16.234;2023-04-06T04:06:32;99148.13;;;-2.92;81.78
51099;BME280;37146;48.210;16.234;2023-04-06T04:08:57;99140.25;;;-3.03;81.89
51099;BME280;37146;48.210;16.234;2023-04-06T04:11:23;99142.84;;;-3.03;82.80
51099;BME280;37146;48.210;16.234;2023-04-06T04:13:48;99141.13;;;-2.99;82.92
51099;BME280;37146;48.210;16.234;2023-04-06T04:16:13;99143.66;;;-3.16;82.55
51099;BME280;37146;48.210;16.234;2023-04-06T04:18:38;99149.78;;;-3.14;82.96
51099;BME280;37146;48.210;16.234;2023-04-06T04:21:04;99144.50;;;-3.19;83.43
51099;BME280;37146;48.210;16.234;2023-04-06T04:23:29;99146.16;;;-3.36;83.04
51099;BME280;37146;48.210;16.234;2023-04-06T04:25:54;99148.81;;;-3.32;83.17
51099;BME280;37146;48.210;16.234;2023-04-06T04:28:20;99146.16;;;-3.35;83.53
51099;BME280;37146;48.210;16.234;2023-04-06T04:30:45;99145.38;;;-3.18;83.40
51099;BME280;37146;48.210;16.234;2023-04-06T04:33:11;99152.41;;;-3.11;83.01
51099;BME280;37146;48.210;16.234;2023-04-06T04:35:36;99152.47;;;-3.02;83.24
51099;BME280;37146;48.210;16.234;2023-04-06T04:38:01;99155.03;;;-3.09;82.95
51099;BME280;37146;48.210;16.234;2023-04-06T04:40:26;99157.56;;;-3.23;82.89
51099;BME280;37146;48.210;16.234;2023-04-06T04:42:52;99164.50;;;-3.32;83.77
51099;BME280;37146;48.210;16.234;2023-04-06T04:45:17;99167.19;;;-3.16;83.84
51099;BME280;37146;48.210;16.234;2023-04-06T04:47:42;99157.53;;;-3.33;83.83
51099;BME280;37146;48.210;16.234;2023-04-06T04:50:08;99162.69;;;-3.40;83.59
51099;BME280;37146;48.210;16.234;2023-04-06T04:52:33;99161.91;;;-3.24;83.59
51099;BME280;37146;48.210;16.234;2023-04-06T04:54:58;99157.53;;;-3.27;83.73
51099;BME280;37146;48.210;16.234;2023-04-06T04:57:23;99159.31;;;-3.22;84.17
51099;BME280;37146;48.210;16.234;2023-04-06T04:59:49;99159.28;;;-3.32;84.13
51099;BME280;37146;48.210;16.234;2023-04-06T05:02:15;99150.41;;;-3.49;84.37
51099;BME280;37146;48.210;16.234;2023-04-06T05:04:41;99154.00;;;-3.35;83.73
51099;BME280;37146;48.210;16.234;2023-04-06T05:07:06;99160.94;;;-3.40;84.07
51099;BME280;37146;48.210;16.234;2023-04-06T05:09:32;99151.41;;;-3.32;83.70
51099;BME280;37146;48.210;16.234;2023-04-06T05:11:58;99158.41;;;-3.28;84.15
51099;BME280;37146;48.210;16.234;2023-04-06T05:14:23;99161.13;;;-3.12;84.45
51099;BME280;37146;48.210;16.234;2023-04-06T05:16:48;99152.41;;;-3.08;83.99
51099;BME280;37146;48.210;16.234;2023-04-06T05:19:14;99152.38;;;-3.14;83.86
51099;BME280;37146;48.210;16.234;2023-04-06T05:21:39;99154.16;;;-3.13;83.55
51099;BME280;37146;48.210;16.234;2023-04-06T05:24:05;99159.44;;;-3.01;83.65
51099;BME280;37146;48.210;16.234;2023-04-06T05:26:30;99159.50;;;-2.91;84.41
51099;BME280;37146;48.210;16.234;2023-04-06T05:28:55;99155.16;;;-2.83;83.28
51099;BME280;37146;48.210;16.234;2023-04-06T05:31:21;99145.69;;;-2.56;82.65
51099;BME280;37146;48.210;16.234;2023-04-06T05:33:46;99150.94;;;-2.56;81.38
51099;BME280;37146;48.210;16.234;2023-04-06T05:36:11;99151.88;;;-2.28;80.81
51099;BME280;37146;48.210;16.234;2023-04-06T05:38:37;99151.91;;;-2.23;80.11
51099;BME280;37146;48.210;16.234;2023-04-06T05:41:02;99152.78;;;-2.09;79.04
51099;BME280;37146;48.210;16.234;2023-04-06T05:43:27;99149.31;;;-1.95;78.52
51099;BME280;37146;48.210;16.234;2023-04-06T05:45:53;99151.94;;;-1.89;77.90
51099;BME280;37146;48.210;16.234;2023-04-06T05:48:18;99147.59;;;-1.73;76.83
51099;BME280;37146;48.210;16.234;2023-04-06T05:50:47;99151.94;;;-1.53;76.11
51099;BME280;37146;48.210;16.234;2023-04-06T05:53:12;99151.94;;;-1.47;75.35
51099;BME280;37146;48.210;16.234;2023-04-06T05:55:37;99149.31;;;-1.41;74.73
51099;BME280;37146;48.210;16.234;2023-04-06T05:58:02;99144.06;;;-1.36;74.06
51099;BME280;37146;48.210;16.234;2023-04-06T06:00:28;99142.28;;;-1.16;72.67
51099;BME280;37146;48.210;16.234;2023-04-06T06:02:53;99148.38;;;-1.03;72.17
51099;BME280;37146;48.210;16.234;2023-04-06T06:05:18;99150.94;;;-0.86;71.32
51099;BME280;37146;48.210;16.234;2023-04-06T06:07:43;99147.41;;;-0.77;70.85
51099;BME280;37146;48.210;16.234;2023-04-06T06:10:09;99143.84;;;-0.59;69.36
51099;BME280;37146;48.210;16.234;2023-04-06T06:12:34;99152.53;;;-0.46;69.11
51099;BME280;37146;48.210;16.234;2023-04-06T06:15:00;99149.84;;;-0.32;67.84
51099;BME280;37146;48.210;16.234;2023-04-06T06:17:25;99153.25;;;-0.18;67.42
51099;BME280;37146;48.210;16.234;2023-04-06T06:19:50;99156.69;;;0.00;67.31
51099;BME280;37146;48.210;16.234;2023-04-06T06:22:16;99154.84;;;0.13;66.64
51099;BME280;37146;48.210;16.234;2023-04-06T06:24:41;99160.03;;;0.19;67.07
51099;BME280;37146;48.210;16.234;2023-04-06T06:27:06;99156.50;;;0.26;66.10
51099;BME280;37146;48.210;16.234;2023-04-06T06:29:32;99159.00;;;0.43;65.88
51099;BME280;37146;48.210;16.234;2023-04-06T06:31:58;99157.16;;;0.52;65.99
51099;BME280;37146;48.210;16.234;2023-04-06T06:34:23;99155.28;;;0.66;65.91
51099;BME280;37146;48.210;16.234;2023-04-06T06:36:48;99148.97;;;0.83;65.55
51099;BME280;37146;48.210;16.234;2023-04-06T06:39:13;99155.03;;;0.91;65.34
51099;BME280;37146;48.210;16.234;2023-04-06T06:41:39;99139.88;;;1.13;65.40
51099;BME280;37146;48.210;16.234;2023-04-06T06:44:05;99143.31;;;1.21;64.41
51099;BME280;37146;48.210;16.234;2023-04-06T06:46:30;99147.56;;;1.32;64.36
51099;BME280;37146;48.210;16.234;2023-04-06T06:48:55;99146.53;;;1.44;64.04
51099;BME280;37146;48.210;16.234;2023-04-06T06:51:20;99144.78;;;1.44;63.40
51099;BME280;37146;48.210;16.234;2023-04-06T06:53:46;99147.94;;;1.71;63.99
51099;BME280;37146;48.210;16.234;2023-04-06T06:56:11;99140.00;;;1.76;63.40
51099;BME280;37146;48.210;16.234;2023-04-06T06:58:37;99138.75;;;2.00;63.67
51099;BME280;37146;48.210;16.234;2023-04-06T07:01:03;99140.41;;;2.07;62.84
51099;BME280;37146;48.210;16.234;2023-04-06T07:03:30;99136.56;;;2.27;62.51
51099;BME280;37146;48.210;16.234;2023-04-06T07:05:55;99144.50;;;2.28;61.65
51099;BME280;37146;48.210;16.234;2023-04-06T07:08:21;99156.44;;;2.51;61.25
51099;BME280;37146;48.210;16.234;2023-04-06T07:10:47;99151.16;;;2.51;61.67
51099;BME280;37146;48.210;16.234;2023-04-06T07:13:12;99149.25;;;2.59;60.60
51099;BME280;37146;48.210;16.234;2023-04-06T07:15:43;99143.13;;;2.59;61.09
51099;BME280;37146;48.210;16.234;2023-04-06T07:18:08;99149.53;;;2.94;60.77
51099;BME280;37146;48.210;16.234;2023-04-06T07:20:33;99151.34;;;2.90;60.78
51099;BME280;37146;48.210;16.234;2023-04-06T07:22:58;99150.84;;;3.17;59.28
51099;BME280;37146;48.210;16.234;2023-04-06T07:25:24;99144.53;;;3.25;60.35
51099;BME280;37146;48.210;16.234;2023-04-06T07:27:49;99144.72;;;3.16;59.82
51099;BME280;37146;48.210;16.234;2023-04-06T07:30:15;99139.84;;;3.40;59.80
51099;BME280;37146;48.210;16.234;2023-04-06T07:32:40;99143.25;;;3.45;59.13
51099;BME280;37146;48.210;16.234;2023-04-06T07:35:05;99136.28;;;3.83;58.75
51099;BME280;37146;48.210;16.234;2023-04-06T07:37:31;99144.81;;;3.55;58.43
51099;BME280;37146;48.210;16.234;2023-04-06T07:39:56;99139.84;;;3.82;57.87
51099;BME280;37146;48.210;16.234;2023-04-06T07:42:21;99139.13;;;4.13;58.07
51099;BME280;37146;48.210;16.234;2023-04-06T07:44:47;99140.06;;;4.11;57.37
51099;BME280;37146;48.210;16.234;2023-04-06T07:47:13;99138.72;;;4.30;57.25
51099;BME280;37146;48.210;16.234;2023-04-06T07:49:38;99133.09;;;4.44;56.15
51099;BME280;37146;48.210;16.234;2023-04-06T07:52:03;99130.34;;;4.84;55.87
51099;BME280;37146;48.210;16.234;2023-04-06T07:54:29;99135.41;;;4.93;55.34
51099;BME280;37146;48.210;16.234;2023-04-06T07:56:54;99137.72;;;5.05;55.79
51099;BME280;37146;48.210;16.234;2023-04-06T07:59:19;99136.38;;;5.22;54.67
51099;BME280;37146;48.210;16.234;2023-04-06T08:01:45;99117.88;;;5.19;54.89
51099;BME280;37146;48.210;16.234;2023-04-06T08:04:10;99129.41;;;5.79;53.91
51099;BME280;37146;48.210;16.234;2023-04-06T08:06:35;99115.31;;;5.47;53.70
51099;BME280;37146;48.210;16.234;2023-04-06T08:09:01;99119.13;;;5.68;54.92
51099;BME280;37146;48.210;16.234;2023-04-06T08:11:26;99122.13;;;5.86;53.23
51099;BME280;37146;48.210;16.234;2023-04-06T08:13:52;99114.19;;;6.16;52.71
51099;BME280;37146;48.210;16.234;2023-04-06T08:16:18;99116.84;;;6.43;52.22
51099;BME280;37146;48.210;16.234;2023-04-06T08:18:43;99113.78;;;7.06;50.56
51099;BME280;37146;48.210;16.234;2023-04-06T08:21:08;99121.44;;;6.90;50.24
51099;BME280;37146;48.210;16.234;2023-04-06T08:23:34;99114.84;;;7.02;51.27
51099;BME280;37146;48.210;16.234;2023-04-06T08:25:59;99112.38;;;6.95;50.20
51099;BME280;37146;48.210;16.234;2023-04-06T08:28:24;99111.66;;;7.41;49.36
51099;BME280;37146;48.210;16.234;2023-04-06T08:30:49;99109.97;;;6.62;49.76
51099;BME280;37146;48.210;16.234;2023-04-06T08:33:15;99107.66;;;7.77;47.44
51099;BME280;37146;48.210;16.234;2023-04-06T08:35:40;99115.84;;;6.99;48.54
51099;BME280;37146;48.210;16.234;2023-04-06T08:38:06;99114.66;;;7.55;47.75
51099;BME280;37146;48.210;16.234;2023-04-06T08:40:35;99105.88;;;7.04;47.91
51099;BME280;37146;48.210;16.234;2023-04-06T08:43:01;99112.00;;;8.47;46.46
51099;BME280;37146;48.210;16.234;2023-04-06T08:45:28;99108.53;;;8.44;45.70
51099;BME280;37146;48.210;16.234;2023-04-06T08:47:54;99101.88;;;8.97;45.78
51099;BME280;37146;48.210;16.234;2023-04-06T08:50:24;99095.81;;;8.93;45.07
51099;BME280;37146;48.210;16.234;2023-04-06T08:52:51;99094.28;;;8.67;44.80
51099;BME280;37146;48.210;16.234;2023-04-06T08:55:16;99093.22;;;10.27;42.34
51099;BME280;37146;48.210;16.234;2023-04-06T08:57:42;99097.69;;;9.90;42.69
51099;BME280;37146;48.210;16.234;2023-04-06T09:00:08;99082.97;;;9.62;42.98
51099;BME280;37146;48.210;16.234;2023-04-06T09:02:36;99080.25;;;10.56;42.01
51099;BME280;37146;48.210;16.234;2023-04-06T09:05:03;99083.25;;;10.85;40.87
51099;BME280;37146;48.210;16.234;2023-04-06T09:07:28;99086.91;;;11.51;40.03
51099;BME280;37146;48.210;16.234;2023-04-06T09:09:54;99068.53;;;11.61;38.81
51099;BME280;37146;48.210;16.234;2023-04-06T09:12:26;99071.25;;;12.56;38.77
51099;BME280;37146;48.210;16.234;2023-04-06T09:14:52;99078.88;;;12.47;38.00
51099;BME280;37146;48.210;16.234;2023-04-06T09:17:26;99069.31;;;12.88;37.49
51099;BME280;37146;48.210;16.234;2023-04-06T09:19:52;99048.16;;;11.25;39.54
51099;BME280;37146;48.210;16.234;2023-04-06T09:22:18;99060.31;;;9.71;43.87
51099;BME280;37146;48.210;16.234;2023-04-06T09:24:48;99056.31;;;8.40;44.63
51099;BME280;37146;48.210;16.234;2023-04-06T09:27:14;99042.97;;;10.53;41.34
51099;BME280;37146;48.210;16.234;2023-04-06T09:29:40;99050.50;;;8.73;45.26
51099;BME280;37146;48.210;16.234;2023-04-06T09:32:05;99046.97;;;8.29;45.87
51099;BME280;37146;48.210;16.234;2023-04-06T09:34:31;99033.22;;;8.61;45.50
51099;BME280;37146;48.210;16.234;2023-04-06T09:36:56;99032.03;;;8.68;44.72
51099;BME280;37146;48.210;16.234;2023-04-06T09:39:23;99025.22;;;7.96;44.75
51099;BME280;37146;48.210;16.234;2023-04-06T09:41:49;99033.47;;;10.11;41.87
51099;BME280;37146;48.210;16.234;2023-04-06T09:44:15;99025.97;;;10.54;40.65
51099;BME280;37146;48.210;16.234;2023-04-06T09:46:41;99023.56;;;11.50;38.33
51099;BME280;37146;48.210;16.234;2023-04-06T09:49:07;99029.34;;;10.03;39.56
51099;BME280;37146;48.210;16.234;2023-04-06T09:51:36;99029.84;;;11.99;35.63
51099;BME280;37146;48.210;16.234;2023-04-06T09:54:02;99013.59;;;11.20;36.92
51099;BME280;37146;48.210;16.234;2023-04-06T09:59:14;98999.31;;;11.04;37.29
51099;BME280;37146;48.210;16.234;2023-04-06T10:01:43;99006.63;;;9.39;40.75
51099;BME280;37146;48.210;16.234;2023-04-06T10:04:13;99010.22;;;9.19;40.85
51099;BME280;37146;48.210;16.234;2023-04-06T10:06:45;99016.69;;;8.53;42.49
51099;BME280;37146;48.210;16.234;2023-04-06T10:09:13;99004.75;;;8.61;41.88
51099;BME280;37146;48.210;16.234;2023-04-06T10:11:39;99000.44;;;10.82;37.50
51099;BME280;37146;48.210;16.234;2023-04-06T10:14:05;98999.91;;;12.37;34.67
51099;BME280;37146;48.210;16.234;2023-04-06T10:16:31;98999.72;;;11.62;36.53
51099;BME280;37146;48.210;16.234;2023-04-06T10:18:58;98991.66;;;10.27;36.33
51099;BME280;37146;48.210;16.234;2023-04-06T10:21:27;98991.25;;;9.25;38.88
51099;BME280;37146;48.210;16.234;2023-04-06T10:23:56;98985.22;;;10.66;37.02
51099;BME280;37146;48.210;16.234;2023-04-06T10:26:23;98981.88;;;10.26;36.21
51099;BME280;37146;48.210;16.234;2023-04-06T10:28:48;98974.97;;;11.08;35.81
51099;BME280;37146;48.210;16.234;2023-04-06T10:31:14;98978.16;;;10.65;37.96
51099;BME280;37146;48.210;16.234;2023-04-06T10:33:39;98975.75;;;11.10;35.64
51099;BME280;37146;48.210;16.234;2023-04-06T10:36:12;98983.94;;;9.67;38.00
51099;BME280;37146;48.210;16.234;2023-04-06T10:38:38;98963.66;;;12.75;33.54
51099;BME280;37146;48.210;16.234;2023-04-06T10:41:07;98964.81;;;13.85;32.11
51099;BME280;37146;48.210;16.234;2023-04-06T10:43:34;98961.06;;;14.28;30.87
51099;BME280;37146;48.210;16.234;2023-04-06T10:46:03;98958.38;;;15.44;29.56
51099;BME280;37146;48.210;16.234;2023-04-06T10:48:46;98959.13;;;14.83;30.71
51099;BME280;37146;48.210;16.234;2023-04-06T10:51:13;98948.81;;;13.27;31.21
51099;BME280;37146;48.210;16.234;2023-04-06T10:53:40;98951.34;;;13.99;31.72
51099;BME280;37146;48.210;16.234;2023-04-06T10:56:09;98944.03;;;12.15;32.36
51099;BME280;37146;48.210;16.234;2023-04-06T10:58:36;98952.94;;;12.60;31.91
51099;BME280;37146;48.210;16.234;2023-04-06T11:01:01;98941.28;;;14.29;30.28
51099;BME280;37146;48.210;16.234;2023-04-06T11:03:27;98951.69;;;12.80;31.49
51099;BME280;37146;48.210;16.234;2023-04-06T11:05:52;98929.22;;;13.25;31.43
51099;BME280;37146;48.210;16.234;2023-04-06T11:08:33;98943.94;;;14.69;29.74
51099;BME280;37146;48.210;16.234;2023-04-06T11:11:08;98939.38;;;14.57;29.52
51099;BME280;37146;48.210;16.234;2023-04-06T11:13:40;98923.13;;;13.92;29.55
51099;BME280;37146;48.210;16.234;2023-04-06T11:16:06;98931.31;;;14.57;29.10
51099;BME280;37146;48.210;16.234;2023-04-06T11:18:32;98943.75;;;12.79;31.62
51099;BME280;37146;48.210;16.234;2023-04-06T11:20:57;98938.38;;;12.50;32.36
51099;BME280;37146;48.210;16.234;2023-04-06T11:23:25;98931.06;;;14.21;31.05
51099;BME280;37146;48.210;16.234;2023-04-06T11:25:52;98913.41;;;13.76;30.51
51099;BME280;37146;48.210;16.234;2023-04-06T11:28:17;98928.56;;;13.21;31.80
51099;BME280;37146;48.210;16.234;2023-04-06T11:30:43;98928.03;;;13.58;31.71
51099;BME280;37146;48.210;16.234;2023-04-06T11:33:08;98917.81;;;12.34;32.32
51099;BME280;37146;48.210;16.234;2023-04-06T11:35:33;98906.84;;;13.81;30.36
51099;BME280;37146;48.210;16.234;2023-04-06T11:38:02;98911.78;;;14.14;29.70
51099;BME280;37146;48.210;16.234;2023-04-06T11:40:27;98912.06;;;13.69;30.84
51099;BME280;37146;48.210;16.234;2023-04-06T11:42:55;98902.25;;;12.99;32.57
51099;BME280;37146;48.210;16.234;2023-04-06T11:45:20;98908.66;;;12.96;31.39
51099;BME280;37146;48.210;16.234;2023-04-06T11:47:54;98899.75;;;12.67;31.82
51099;BME280;37146;48.210;16.234;2023-04-06T11:50:20;98896.31;;;13.78;30.15
51099;BME280;37146;48.210;16.234;2023-04-06T11:52:47;98894.63;;;14.68;29.34
51099;BME280;37146;48.210;16.234;2023-04-06T11:55:22;98879.84;;;14.61;29.22
51099;BME280;37146;48.210;16.234;2023-04-06T11:57:47;98881.59;;;15.25;28.41
51099;BME280;37146;48.210;16.234;2023-04-06T12:00:14;98873.03;;;14.04;29.46
51099;BME280;37146;48.210;16.234;2023-04-06T12:02:39;98873.31;;;14.78;29.58
51099;BME280;37146;48.210;16.234;2023-04-06T12:05:05;98872.72;;;13.68;30.67
51099;BME280;37146;48.210;16.234;2023-04-06T12:07:31;98885.16;;;12.28;32.70
51099;BME280;37146;48.210;16.234;2023-04-06T12:09:57;98879.81;;;12.42;33.44
51099;BME280;37146;48.210;16.234;2023-04-06T12:12:23;98870.22;;;12.24;32.49
51099;BME280;37146;48.210;16.234;2023-04-06T12:14:48;98870.78;;;12.58;32.99
51099;BME280;37146;48.210;16.234;2023-04-06T12:17:13;98870.22;;;12.38;32.53
51099;BME280;37146;48.210;16.234;2023-04-06T12:19:39;98868.66;;;11.89;32.69
51099;BME280;37146;48.210;16.234;2023-04-06T12:22:04;98857.09;;;11.88;33.93
51099;BME280;37146;48.210;16.234;2023-04-06T12:24:30;98851.03;;;12.01;32.97
51099;BME280;37146;48.210;16.234;2023-04-06T12:26:55;98852.09;;;11.52;33.83
51099;BME280;37146;48.210;16.234;2023-04-06T12:29:22;98849.28;;;11.69;33.67
51099;BME280;37146;48.210;16.234;2023-04-06T12:31:47;98858.44;;;11.65;34.20
51099;BME280;37146;48.210;16.234;2023-04-06T12:34:12;98844.94;;;11.97;34.12
51099;BME280;37146;48.210;16.234;2023-04-06T12:36:38;98841.34;;;11.98;33.61
51099;BME280;37146;48.210;16.234;2023-04-06T12:39:04;98816.25;;;11.69;33.25
51099;BME280;37146;48.210;16.234;2023-04-06T12:41:29;98823.09;;;12.34;33.44
51099;BME280;37146;48.210;16.234;2023-04-06T12:43:55;98829.22;;;12.65;33.05
51099;BME280;37146;48.210;16.234;2023-04-06T12:46:20;98821.38;;;12.62;33.29
51099;BME280;37146;48.210;16.234;2023-04-06T12:48:46;98835.31;;;12.81;32.74